Etusivu
METAR-TAF:

METAR-TAF

Lentoasemat :

Porto Alegre, Rio Grande do Sul, Brasilia

Leveyspiiri: 30-00S, Pituuspiiri: 051-11W, korkeus merenpinnasta: 3 m

Tämänhetkinen sää

Tämä raportti tehtiin 22 minuuttia sitten, kello 17.00 UTC
Tuuli 6 kn idästä, vaihdellen koillisen ja kaakon välillä
Lämpötila 24°C
Kosteus 65%
Ilmanpaine 1008 hPa
Näkyvyys 10 km tai enemmän
Hajonneita pilviä 3500 ft:n korkeudessa

METAR: SBPA 171700Z 10006KT 050V130 9999 BKN035 24/17 Q1008

Aika: 15:22 (17:22 UTC)

Sääennuste

Tämä raportti tehtiin 8 tuntia ja 22 minuuttia sitten, kello 09.00 UTC
Ennuste voimassa 17. päivästä klo 12 UTC - 18. päivään klo 12 UTC
Tuuli 8 kn idästä/kaakosta
Näkyvyys 10 km tai enemmän
Hajonneita pilviä 1000 ft:n korkeudessa
Tulossa
18. päivästä klo 04 UTC - 18. päivään klo 08 UTC
Tuuli 2 kn etelästä

TAF: SBPA 170900Z 1712/1812 12008KT 9999 BKN010 TX22/1720Z TN19/1724Z BECMG 1804/1808 17002KT RMK PDN

Säähavainnot ja -ennusteet yli 4000 lentoasemalta (METAR- ja TAF-raportit).

Käytössä olevat sääasemat on merkitty karttaan keltaisilla ja punaisilla pisteillä.

Aseta hiiri pisteen päälle nähdäksesi sääaseman nimen.

Klikkaa sitten nähdäksesi säähavainnot ja -ennusteet.

Kartan vaihtaminen: klikkaa mustalla rastilla varustettuja vihreitä pisteitä, niin voit zoomata sisään; viivalla varustettua vihreää pistettä, niin voit zoomata ulos tai vihreitä nuolia, niin pääset viereisille kartoille.


METAR-TAF: